createdAt,value
2019-04-07T00:01:34.414Z,9.90
2019-04-07T00:04:01.803Z,9.90
2019-04-07T00:06:29.450Z,9.80
2019-04-07T00:08:56.879Z,9.70
2019-04-07T00:11:24.216Z,9.70
2019-04-07T00:13:51.806Z,9.60
2019-04-07T00:16:19.217Z,9.70
2019-04-07T00:18:47.031Z,9.70
2019-04-07T00:21:14.583Z,9.60
2019-04-07T00:23:42.976Z,9.60
2019-04-07T00:26:10.352Z,9.60
2019-04-07T00:28:37.694Z,9.50
2019-04-07T00:31:05.133Z,9.50
2019-04-07T00:33:32.598Z,9.40
2019-04-07T00:36:00.195Z,9.40
2019-04-07T00:38:28.372Z,9.40
2019-04-07T00:40:55.809Z,9.30
2019-04-07T00:43:23.145Z,9.30
2019-04-07T00:45:50.906Z,9.30
2019-04-07T00:48:18.430Z,9.30
2019-04-07T00:50:46.061Z,9.30
2019-04-07T00:53:13.518Z,9.30
2019-04-07T00:55:40.877Z,9.20
2019-04-07T00:58:08.320Z,9.10
2019-04-07T01:00:37.393Z,9.10
2019-04-07T01:03:04.724Z,9.10
2019-04-07T01:05:37.387Z,9.10
2019-04-07T01:08:01.757Z,9.00
2019-04-07T01:10:29.144Z,9.00
2019-04-07T01:12:56.487Z,8.90
2019-04-07T01:15:24.113Z,8.90
2019-04-07T01:17:51.377Z,8.80
2019-04-07T01:20:18.733Z,8.80
2019-04-07T01:22:46.235Z,8.70
2019-04-07T01:25:13.892Z,8.70
2019-04-07T01:27:41.331Z,8.70
2019-04-07T01:30:08.789Z,8.60
2019-04-07T01:32:36.701Z,8.60
2019-04-07T01:35:04.750Z,8.50
2019-04-07T01:37:32.177Z,8.50
2019-04-07T01:40:00.128Z,8.40
2019-04-07T01:42:45.662Z,8.40
2019-04-07T01:45:31.159Z,8.50
2019-04-07T01:48:13.939Z,8.30
2019-04-07T01:50:59.385Z,8.30
2019-04-07T01:53:45.459Z,8.30
2019-04-07T01:56:29.613Z,8.30
2019-04-07T01:59:14.652Z,8.40
2019-04-07T02:01:49.513Z,8.40
2019-04-07T02:04:36.734Z,8.40
2019-04-07T02:07:23.787Z,8.40
2019-04-07T02:10:09.696Z,8.40
2019-04-07T02:12:55.628Z,8.30
2019-04-07T02:15:42.575Z,8.30
2019-04-07T02:18:30.038Z,8.30
2019-04-07T02:21:14.282Z,8.30
2019-04-07T02:24:13.082Z,8.20
2019-04-07T02:27:02.769Z,8.30
2019-04-07T02:29:52.838Z,8.20
2019-04-07T02:32:35.552Z,8.20
2019-04-07T02:35:10.573Z,8.20
2019-04-07T02:37:48.670Z,8.20
2019-04-07T02:40:39.449Z,8.10
2019-04-07T02:43:25.305Z,8.10
2019-04-07T02:46:11.083Z,8.10
2019-04-07T02:48:56.769Z,8.10
2019-04-07T02:51:43.590Z,8.00
2019-04-07T02:54:21.360Z,8.00
2019-04-07T02:57:02.422Z,8.00
2019-04-07T03:00:01.705Z,8.00
2019-04-07T03:02:47.709Z,8.00
2019-04-07T03:05:22.613Z,8.00
2019-04-07T03:08:05.748Z,8.00
2019-04-07T03:10:42.517Z,8.10
2019-04-07T03:13:47.380Z,8.10
2019-04-07T03:16:32.400Z,8.10
2019-04-07T03:19:07.101Z,8.10
2019-04-07T03:21:40.387Z,8.10
2019-04-07T03:24:18.902Z,8.10
2019-04-07T03:27:06.604Z,8.10
2019-04-07T03:30:03.882Z,8.30
2019-04-07T03:32:52.974Z,8.20
2019-04-07T03:35:32.773Z,8.30
2019-04-07T03:38:21.067Z,8.30
2019-04-07T03:40:52.570Z,8.30
2019-04-07T03:43:48.353Z,8.30
2019-04-07T03:46:44.191Z,8.30
2019-04-07T03:49:23.369Z,8.40
2019-04-07T03:52:10.405Z,8.40
2019-04-07T03:54:57.275Z,8.40
2019-04-07T03:57:41.228Z,8.40
2019-04-07T04:00:50.232Z,8.50
2019-04-07T04:03:40.634Z,8.50
2019-04-07T04:06:24.725Z,8.60
2019-04-07T04:09:08.079Z,8.50
2019-04-07T04:11:45.105Z,8.60
2019-04-07T04:14:34.943Z,8.60
2019-04-07T04:17:02.294Z,8.60
2019-04-07T04:19:30.193Z,8.60
2019-04-07T04:21:58.755Z,8.60
2019-04-07T04:24:26.595Z,8.60
2019-04-07T04:26:54.058Z,8.60
2019-04-07T04:29:23.099Z,8.50
2019-04-07T04:31:50.718Z,8.60
2019-04-07T04:34:18.216Z,8.60
2019-04-07T04:36:46.364Z,8.70
2019-04-07T04:39:18.183Z,8.50
2019-04-07T04:41:43.131Z,8.50
2019-04-07T04:44:10.503Z,8.50
2019-04-07T04:46:38.773Z,8.50
2019-04-07T04:49:06.720Z,8.50
2019-04-07T04:51:38.667Z,8.50
2019-04-07T04:54:05.163Z,8.50
2019-04-07T04:56:32.903Z,8.50
2019-04-07T04:59:00.299Z,8.50
2019-04-07T05:01:27.664Z,8.40
2019-04-07T05:03:55.003Z,8.40
2019-04-07T05:06:22.437Z,8.40
2019-04-07T05:08:49.966Z,8.40
2019-04-07T05:11:17.509Z,8.40
2019-04-07T05:13:44.995Z,8.40
2019-04-07T05:16:12.996Z,8.40
2019-04-07T05:18:40.416Z,8.40
2019-04-07T05:21:07.715Z,8.40
2019-04-07T05:23:34.910Z,8.40
2019-04-07T05:26:02.232Z,8.40
2019-04-07T05:28:32.102Z,8.40
2019-04-07T05:30:59.106Z,8.40
2019-04-07T05:33:26.686Z,8.40
2019-04-07T05:35:54.852Z,8.30
2019-04-07T05:38:22.363Z,8.30
2019-04-07T05:40:50.061Z,8.30
2019-04-07T05:43:17.514Z,8.30
2019-04-07T05:45:45.511Z,8.30
2019-04-07T05:48:13.245Z,8.40
2019-04-07T05:50:42.197Z,8.40
2019-04-07T05:53:12.078Z,8.50
2019-04-07T05:55:39.351Z,8.50
2019-04-07T05:58:08.203Z,8.60
2019-04-07T06:00:36.187Z,8.60
2019-04-07T06:03:06.628Z,8.70
2019-04-07T06:05:33.446Z,8.80
2019-04-07T06:08:17.799Z,8.80
2019-04-07T06:10:30.565Z,8.80
2019-04-07T06:12:57.952Z,8.90
2019-04-07T06:15:25.848Z,9.00
2019-04-07T06:17:56.201Z,9.00
2019-04-07T06:20:22.568Z,9.10
2019-04-07T06:22:52.935Z,9.10
2019-04-07T06:25:19.242Z,9.10
2019-04-07T06:27:46.736Z,9.10
2019-04-07T06:30:14.891Z,9.10
2019-04-07T06:32:43.701Z,9.20
2019-04-07T06:35:13.319Z,9.20
2019-04-07T06:37:40.812Z,9.20
2019-04-07T06:40:08.980Z,9.30
2019-04-07T06:42:36.534Z,9.40
2019-04-07T06:45:05.236Z,9.40
2019-04-07T06:47:45.369Z,9.50
2019-04-07T06:50:22.449Z,9.60
2019-04-07T06:53:21.568Z,9.60
2019-04-07T06:56:04.884Z,9.80
2019-04-07T06:59:03.826Z,9.90
2019-04-07T07:01:50.656Z,9.90
2019-04-07T07:04:45.506Z,10.10
2019-04-07T07:07:32.563Z,10.20
2019-04-07T07:10:40.050Z,10.30
2019-04-07T07:13:41.330Z,10.50
2019-04-07T07:16:16.953Z,10.60
2019-04-07T07:19:15.372Z,10.80
2019-04-07T07:22:02.316Z,10.90
2019-04-07T07:24:29.645Z,11.10
2019-04-07T07:26:57.981Z,11.20
2019-04-07T07:29:26.846Z,11.30
2019-04-07T07:31:59.733Z,11.50
2019-04-07T07:34:23.424Z,11.60
2019-04-07T07:36:53.449Z,11.70
2019-04-07T07:39:19.873Z,11.80
2019-04-07T07:41:50.370Z,12.00
2019-04-07T07:44:16.719Z,12.10
2019-04-07T07:46:44.382Z,12.30
2019-04-07T07:49:12.425Z,12.40
2019-04-07T07:51:40.547Z,12.60
2019-04-07T07:54:08.663Z,12.80
2019-04-07T07:56:36.719Z,12.90
2019-04-07T07:59:04.526Z,13.00
2019-04-07T08:01:32.219Z,13.20
2019-04-07T08:03:59.777Z,13.40
2019-04-07T08:06:27.130Z,13.60
2019-04-07T08:09:06.367Z,13.70
2019-04-07T08:11:24.034Z,13.80
2019-04-07T08:13:51.477Z,14.00
2019-04-07T08:16:19.247Z,14.20
2019-04-07T08:18:47.351Z,14.50
2019-04-07T08:21:18.481Z,14.60
2019-04-07T08:23:45.382Z,14.80
2019-04-07T08:26:13.409Z,15.00
2019-04-07T08:28:40.813Z,15.20
2019-04-07T08:31:08.066Z,15.40
2019-04-07T08:33:35.574Z,15.50
2019-04-07T08:36:03.332Z,15.60
2019-04-07T08:38:32.176Z,15.80
2019-04-07T08:40:59.562Z,15.90
2019-04-07T08:43:27.581Z,16.00
2019-04-07T08:45:55.371Z,16.10
2019-04-07T08:48:22.744Z,16.10
2019-04-07T08:50:50.360Z,16.30
2019-04-07T08:53:18.346Z,16.40
2019-04-07T08:55:48.428Z,16.60
2019-04-07T08:58:24.952Z,16.70
2019-04-07T09:00:51.001Z,16.90
2019-04-07T09:03:17.174Z,17.10
2019-04-07T09:05:44.599Z,17.30
2019-04-07T09:08:12.123Z,17.50
2019-04-07T09:10:51.020Z,17.70
2019-04-07T09:13:18.627Z,17.80
2019-04-07T09:15:53.339Z,17.90
2019-04-07T09:18:51.737Z,18.10
2019-04-07T09:21:42.570Z,18.20
2019-04-07T09:24:18.034Z,18.30
2019-04-07T09:27:06.968Z,18.50
2019-04-07T09:29:52.339Z,18.60
2019-04-07T09:32:30.940Z,18.70
2019-04-07T09:35:36.248Z,18.80
2019-04-07T09:38:27.340Z,19.00
2019-04-07T09:41:13.196Z,19.30
2019-04-07T09:43:52.894Z,19.50
2019-04-07T09:46:44.611Z,19.80
2019-04-07T09:49:48.142Z,20.50
2019-04-07T09:52:36.055Z,21.10
2019-04-07T09:55:12.041Z,22.10
2019-04-07T09:58:02.032Z,24.20
2019-04-07T10:00:57.330Z,26.30
2019-04-07T10:03:40.130Z,27.40
2019-04-07T10:06:20.838Z,27.80
2019-04-07T10:09:13.594Z,29.00
2019-04-07T10:12:18.490Z,29.40
2019-04-07T10:15:03.898Z,30.20
2019-04-07T10:17:50.830Z,30.00
2019-04-07T10:20:44.418Z,30.50
2019-04-07T10:23:37.516Z,31.10
2019-04-07T10:26:30.292Z,32.10
2019-04-07T10:29:29.199Z,33.40
2019-04-07T10:32:14.576Z,34.00
2019-04-07T10:35:16.788Z,34.10
2019-04-07T10:38:12.608Z,34.00
2019-04-07T10:40:48.025Z,34.50
2019-04-07T10:43:39.308Z,34.70
2019-04-07T10:46:20.473Z,32.90
2019-04-07T10:48:55.857Z,32.10
2019-04-07T10:51:30.786Z,32.70
2019-04-07T10:54:05.784Z,33.40
2019-04-07T10:56:54.140Z,34.20
2019-04-07T10:59:41.106Z,34.20
2019-04-07T11:02:36.869Z,34.30
2019-04-07T11:05:27.981Z,34.50
2019-04-07T11:08:12.520Z,34.70
2019-04-07T11:11:12.134Z,33.80
2019-04-07T11:13:53.412Z,31.50
2019-04-07T11:16:47.034Z,31.30
2019-04-07T11:19:33.269Z,31.30
2019-04-07T11:22:18.791Z,30.10
2019-04-07T11:25:18.328Z,28.60
2019-04-07T11:27:58.232Z,28.20
2019-04-07T11:30:39.827Z,29.00
2019-04-07T11:33:27.790Z,29.50
2019-04-07T11:36:22.569Z,29.90
2019-04-07T11:39:00.569Z,29.60
2019-04-07T11:42:06.025Z,30.50
2019-04-07T11:44:46.799Z,31.10
2019-04-07T11:47:36.744Z,31.30
2019-04-07T11:50:09.390Z,30.70
2019-04-07T11:53:09.095Z,30.20
2019-04-07T11:55:48.994Z,29.60
2019-04-07T11:58:33.193Z,28.40
2019-04-07T12:01:14.420Z,27.60
2019-04-07T12:04:08.154Z,27.00
2019-04-07T12:07:13.012Z,26.20
2019-04-07T12:09:54.288Z,25.50
2019-04-07T12:12:44.070Z,24.90
2019-04-07T12:15:46.279Z,24.20
2019-04-07T12:18:36.396Z,23.50
2019-04-07T12:21:25.445Z,23.20
2019-04-07T12:24:03.767Z,23.00
2019-04-07T12:26:49.103Z,22.80
2019-04-07T12:29:38.593Z,22.70
2019-04-07T12:32:28.105Z,22.80
2019-04-07T12:35:15.394Z,22.90
2019-04-07T12:38:01.551Z,23.00
2019-04-07T12:40:54.063Z,23.00
2019-04-07T12:43:30.299Z,23.00
2019-04-07T12:46:21.006Z,23.00
2019-04-07T12:49:09.386Z,23.10
2019-04-07T12:51:57.089Z,23.30
2019-04-07T12:54:47.072Z,23.30
2019-04-07T12:57:35.467Z,23.30
2019-04-07T13:00:30.840Z,23.30
2019-04-07T13:03:29.967Z,23.20
2019-04-07T13:06:28.770Z,23.10
2019-04-07T13:09:32.418Z,22.80
2019-04-07T13:12:10.703Z,22.70
2019-04-07T13:14:44.745Z,22.80
2019-04-07T13:17:37.571Z,22.90
2019-04-07T13:20:19.001Z,23.10
2019-04-07T13:23:03.081Z,23.20
2019-04-07T13:25:36.410Z,23.40
2019-04-07T13:28:08.367Z,23.60
2019-04-07T13:30:56.370Z,23.80
2019-04-07T13:33:33.250Z,23.90
2019-04-07T13:36:12.537Z,23.70
2019-04-07T13:39:02.399Z,23.70
2019-04-07T13:41:44.896Z,23.70
2019-04-07T13:44:28.387Z,23.80
2019-04-07T13:47:06.423Z,23.70
2019-04-07T13:49:51.436Z,23.70
2019-04-07T13:52:34.423Z,23.80
2019-04-07T13:55:19.575Z,23.90
2019-04-07T13:58:12.094Z,24.00
2019-04-07T14:00:58.421Z,23.90
2019-04-07T14:03:58.901Z,23.60
2019-04-07T14:06:33.931Z,23.70
2019-04-07T14:09:36.389Z,23.60
2019-04-07T14:12:31.067Z,23.40
2019-04-07T14:15:07.818Z,23.50
2019-04-07T14:18:01.120Z,23.50
2019-04-07T14:20:48.590Z,23.40
2019-04-07T14:23:44.666Z,23.20
2019-04-07T14:26:17.917Z,23.30
2019-04-07T14:29:10.504Z,23.60
2019-04-07T14:31:48.027Z,23.60
2019-04-07T14:34:36.053Z,23.70
2019-04-07T14:37:27.536Z,23.80
2019-04-07T14:40:10.725Z,24.00
2019-04-07T14:43:07.043Z,24.10
2019-04-07T14:45:45.323Z,24.40
2019-04-07T14:48:46.836Z,24.40
2019-04-07T14:51:38.651Z,24.30
2019-04-07T14:54:25.859Z,24.20
2019-04-07T14:57:12.842Z,24.20
2019-04-07T14:59:49.653Z,23.60
2019-04-07T15:02:17.153Z,23.50
2019-04-07T15:05:06.994Z,23.50
2019-04-07T15:07:59.619Z,23.40
2019-04-07T15:10:28.942Z,23.10
2019-04-07T15:13:01.894Z,22.90
2019-04-07T15:15:30.252Z,22.70
2019-04-07T15:17:57.663Z,22.60
2019-04-07T15:20:25.101Z,22.50
2019-04-07T15:22:52.855Z,22.30
2019-04-07T15:25:20.233Z,22.10
2019-04-07T15:27:47.766Z,22.10
2019-04-07T15:30:15.882Z,22.20
2019-04-07T15:32:44.002Z,22.20
2019-04-07T15:35:13.219Z,22.50
2019-04-07T15:37:41.779Z,22.70
2019-04-07T15:40:09.333Z,22.50
2019-04-07T15:42:41.878Z,22.20
2019-04-07T15:45:06.521Z,21.90
2019-04-07T15:47:34.642Z,21.50
2019-04-07T15:50:02.961Z,21.30
2019-04-07T15:52:31.495Z,21.30
2019-04-07T15:54:59.572Z,21.50
2019-04-07T15:57:26.936Z,21.60
2019-04-07T15:59:54.315Z,21.70
2019-04-07T16:02:22.321Z,21.80
2019-04-07T16:04:49.715Z,21.70
2019-04-07T16:07:18.751Z,21.70
2019-04-07T16:09:52.848Z,21.60
2019-04-07T16:12:15.313Z,21.50
2019-04-07T16:14:45.879Z,21.30
2019-04-07T16:17:12.119Z,21.20
2019-04-07T16:19:43.079Z,21.10
2019-04-07T16:22:12.353Z,21.10
2019-04-07T16:24:37.900Z,21.10
2019-04-07T16:27:06.817Z,21.00
2019-04-07T16:29:35.099Z,21.00
2019-04-07T16:32:03.012Z,21.00
2019-04-07T16:34:30.474Z,20.90
2019-04-07T16:37:00.198Z,20.70
2019-04-07T16:39:26.807Z,20.70
2019-04-07T16:41:54.026Z,20.60
2019-04-07T16:44:21.300Z,20.60
2019-04-07T16:46:48.921Z,20.70
2019-04-07T16:49:18.689Z,20.70
2019-04-07T16:51:45.387Z,20.60
2019-04-07T16:54:13.253Z,20.60
2019-04-07T16:56:41.402Z,20.50
2019-04-07T16:59:10.181Z,20.50
2019-04-07T17:01:38.009Z,20.40
2019-04-07T17:04:05.207Z,20.30
2019-04-07T17:06:35.627Z,20.30
2019-04-07T17:09:05.493Z,20.30
2019-04-07T17:11:36.976Z,20.30
2019-04-07T17:14:03.191Z,20.20
2019-04-07T17:16:31.321Z,20.20
2019-04-07T17:18:58.820Z,20.10
2019-04-07T17:21:26.616Z,20.10
2019-04-07T17:23:55.338Z,20.00
2019-04-07T17:26:24.167Z,19.90
2019-04-07T17:28:51.621Z,19.90
2019-04-07T17:31:18.940Z,19.80
2019-04-07T17:33:47.007Z,19.70
2019-04-07T17:36:17.670Z,19.70
2019-04-07T17:39:09.695Z,19.60
2019-04-07T17:41:37.212Z,19.50
2019-04-07T17:44:24.513Z,19.40
2019-04-07T17:47:14.059Z,19.30
2019-04-07T17:49:56.659Z,19.30
2019-04-07T17:52:48.264Z,19.20
2019-04-07T17:55:34.209Z,19.20
2019-04-07T17:58:15.649Z,19.10
2019-04-07T18:01:06.933Z,19.00
2019-04-07T18:03:56.616Z,19.00
2019-04-07T18:06:56.034Z,18.90
2019-04-07T18:09:43.784Z,18.80
2019-04-07T18:12:29.476Z,18.80
2019-04-07T18:15:26.265Z,18.70
2019-04-07T18:18:13.375Z,18.60
2019-04-07T18:20:51.832Z,18.60
2019-04-07T18:23:41.956Z,18.60
2019-04-07T18:26:29.676Z,18.50
2019-04-07T18:29:08.488Z,18.40
2019-04-07T18:31:53.053Z,18.30
2019-04-07T18:34:46.243Z,18.30
2019-04-07T18:37:41.365Z,18.20
2019-04-07T18:40:17.857Z,18.10
2019-04-07T18:42:51.537Z,18.10
2019-04-07T18:45:44.073Z,18.00
2019-04-07T18:48:32.721Z,17.90
2019-04-07T18:51:23.155Z,17.90
2019-04-07T18:54:21.242Z,17.80
2019-04-07T18:57:12.750Z,17.70
2019-04-07T19:00:03.032Z,17.60
2019-04-07T19:02:49.295Z,17.60
2019-04-07T19:05:24.504Z,17.50
2019-04-07T19:08:00.968Z,17.40
2019-04-07T19:10:46.627Z,17.30
2019-04-07T19:13:33.603Z,17.30
2019-04-07T19:16:18.990Z,17.20
2019-04-07T19:19:12.776Z,17.10
2019-04-07T19:21:53.709Z,17.00
2019-04-07T19:24:47.424Z,17.00
2019-04-07T19:27:40.568Z,16.90
2019-04-07T19:30:30.889Z,16.80
2019-04-07T19:33:17.854Z,16.70
2019-04-07T19:36:12.171Z,16.70
2019-04-07T19:38:54.803Z,16.60
2019-04-07T19:42:00.932Z,16.60
2019-04-07T19:44:40.474Z,16.50
2019-04-07T19:47:14.169Z,16.40
2019-04-07T19:50:01.138Z,16.40
2019-04-07T19:52:47.665Z,16.30
2019-04-07T19:55:26.618Z,16.30
2019-04-07T19:58:14.100Z,16.20
2019-04-07T20:01:06.702Z,16.20
2019-04-07T20:03:56.464Z,16.10
2019-04-07T20:06:45.957Z,16.00
2019-04-07T20:09:32.074Z,16.00
2019-04-07T20:12:21.545Z,15.90
2019-04-07T20:15:11.036Z,15.80
2019-04-07T20:18:08.419Z,15.80
2019-04-07T20:21:08.470Z,15.70
2019-04-07T20:23:41.766Z,15.60
2019-04-07T20:26:37.784Z,15.50
2019-04-07T20:29:23.650Z,15.50
2019-04-07T20:32:21.244Z,15.40
2019-04-07T20:35:10.945Z,15.30
2019-04-07T20:37:56.761Z,15.30
2019-04-07T20:40:47.799Z,15.20
2019-04-07T20:43:46.479Z,15.20
2019-04-07T20:46:49.109Z,15.10
2019-04-07T20:49:35.675Z,15.00
2019-04-07T20:52:34.966Z,15.00
2019-04-07T20:55:21.173Z,14.90
2019-04-07T20:58:15.238Z,14.90
2019-04-07T21:01:00.592Z,14.80
2019-04-07T21:03:49.374Z,14.80
2019-04-07T21:06:32.503Z,14.70
2019-04-07T21:09:34.012Z,14.60
2019-04-07T21:12:17.352Z,14.60
2019-04-07T21:15:26.044Z,14.50
2019-04-07T21:18:06.184Z,14.40
2019-04-07T21:20:44.106Z,14.40
2019-04-07T21:23:31.612Z,14.30
2019-04-07T21:26:16.020Z,14.30
2019-04-07T21:29:10.991Z,14.20
2019-04-07T21:31:56.054Z,14.20
2019-04-07T21:34:41.278Z,14.20
2019-04-07T21:37:25.400Z,14.10
2019-04-07T21:40:08.820Z,14.10
2019-04-07T21:43:02.725Z,14.00
2019-04-07T21:45:49.915Z,14.00
2019-04-07T21:48:35.932Z,13.90
2019-04-07T21:51:31.778Z,13.90
2019-04-07T21:54:14.393Z,13.90
2019-04-07T21:57:07.943Z,13.80
2019-04-07T21:59:48.261Z,13.80
2019-04-07T22:02:43.678Z,13.80
2019-04-07T22:05:15.928Z,13.70
2019-04-07T22:08:03.695Z,13.70
2019-04-07T22:10:28.951Z,13.70
2019-04-07T22:12:59.346Z,13.70
2019-04-07T22:15:25.510Z,13.60
2019-04-07T22:17:52.843Z,13.60
2019-04-07T22:20:20.605Z,13.60
2019-04-07T22:22:49.360Z,13.60
2019-04-07T22:25:25.595Z,13.50
2019-04-07T22:27:55.612Z,13.50
2019-04-07T22:30:22.145Z,13.40
2019-04-07T22:32:51.281Z,13.30
2019-04-07T22:35:18.886Z,13.30
2019-04-07T22:37:49.086Z,13.20
2019-04-07T22:40:17.757Z,13.20
2019-04-07T22:42:45.886Z,13.10
2019-04-07T22:45:14.937Z,13.10
2019-04-07T22:47:42.224Z,13.10
2019-04-07T22:50:09.569Z,13.00
2019-04-07T22:52:36.974Z,12.90
2019-04-07T22:55:07.073Z,12.90
2019-04-07T22:57:33.528Z,12.80
2019-04-07T23:00:00.871Z,12.80
2019-04-07T23:02:28.356Z,12.70
2019-04-07T23:04:55.712Z,12.60
2019-04-07T23:07:23.460Z,12.60
2019-04-07T23:09:51.690Z,12.50
2019-04-07T23:12:19.115Z,12.40
2019-04-07T23:14:46.443Z,12.30
2019-04-07T23:17:13.767Z,12.30
2019-04-07T23:19:41.941Z,12.20
2019-04-07T23:22:09.569Z,12.10
2019-04-07T23:24:37.761Z,12.10
2019-04-07T23:27:06.106Z,12.00
2019-04-07T23:29:33.400Z,11.90
2019-04-07T23:32:00.700Z,11.90
2019-04-07T23:34:28.029Z,11.80
2019-04-07T23:36:55.314Z,11.70
2019-04-07T23:39:22.631Z,11.70
2019-04-07T23:41:49.949Z,11.60
2019-04-07T23:44:17.261Z,11.60
2019-04-07T23:46:44.674Z,11.60
2019-04-07T23:49:13.078Z,11.50
2019-04-07T23:51:41.352Z,11.50
2019-04-07T23:54:11.004Z,11.60
2019-04-07T23:56:39.627Z,11.60
2019-04-07T23:59:08.070Z,11.60
